createdAt,value
2019-01-16T00:02:14.291Z,32.40
2019-01-16T00:04:49.278Z,28.70
2019-01-16T00:07:24.311Z,26.73
2019-01-16T00:10:11.090Z,29.67
2019-01-16T00:12:46.203Z,30.03
2019-01-16T00:15:37.476Z,28.50
2019-01-16T00:18:29.248Z,30.53
2019-01-16T00:21:09.952Z,29.10
2019-01-16T00:23:45.229Z,29.57
2019-01-16T00:26:22.873Z,31.97
2019-01-16T00:28:58.020Z,31.10
2019-01-16T00:31:32.993Z,31.87
2019-01-16T00:34:16.861Z,30.43
2019-01-16T00:37:04.165Z,33.67
2019-01-16T00:39:51.150Z,30.83
2019-01-16T00:42:29.226Z,31.23
2019-01-16T00:45:04.226Z,31.00
2019-01-16T00:47:54.241Z,33.53
2019-01-16T00:50:29.242Z,29.97
2019-01-16T00:53:19.240Z,29.40
2019-01-16T00:56:03.093Z,30.60
2019-01-16T00:58:38.046Z,30.13
2019-01-16T01:01:29.147Z,33.30
2019-01-16T01:04:04.116Z,32.67
2019-01-16T01:06:39.488Z,32.40
2019-01-16T01:09:14.529Z,30.17
2019-01-16T01:11:49.693Z,31.90
2019-01-16T01:14:24.736Z,33.57
2019-01-16T01:17:11.912Z,33.90
2019-01-16T01:20:03.014Z,34.60
2019-01-16T01:22:50.277Z,32.17
2019-01-16T01:25:43.313Z,33.87
2019-01-16T01:28:21.541Z,31.10
2019-01-16T01:31:04.997Z,36.00
2019-01-16T01:33:54.943Z,41.13
2019-01-16T01:36:46.535Z,33.43
2019-01-16T01:39:30.597Z,32.10
2019-01-16T01:42:05.910Z,35.50
2019-01-16T01:44:43.823Z,33.70
2019-01-16T01:47:21.765Z,34.80
2019-01-16T01:49:56.765Z,33.03
2019-01-16T01:52:50.075Z,35.60
2019-01-16T01:55:27.523Z,32.80
2019-01-16T01:58:02.564Z,36.33
2019-01-16T02:00:54.434Z,34.07
2019-01-16T02:03:41.424Z,35.10
2019-01-16T02:06:31.447Z,32.20
2019-01-16T02:09:11.224Z,33.10
2019-01-16T02:11:58.096Z,33.87
2019-01-16T02:14:38.752Z,34.10
2019-01-16T02:17:16.175Z,32.97
2019-01-16T02:20:01.630Z,31.90
2019-01-16T02:22:45.485Z,32.53
2019-01-16T02:25:32.589Z,33.00
2019-01-16T02:28:24.042Z,29.23
2019-01-16T02:31:11.118Z,33.10
2019-01-16T02:33:58.180Z,32.50
2019-01-16T02:36:33.146Z,32.97
2019-01-16T02:39:09.220Z,30.43
2019-01-16T02:42:00.472Z,40.00
2019-01-16T02:44:44.070Z,41.57
2019-01-16T02:47:35.260Z,32.07
2019-01-16T02:50:16.379Z,29.50
2019-01-16T02:53:07.977Z,30.10
2019-01-16T02:56:01.164Z,32.27
2019-01-16T02:58:52.428Z,32.33
2019-01-16T03:01:36.467Z,33.33
2019-01-16T03:04:14.111Z,32.87
2019-01-16T03:06:49.127Z,32.73
2019-01-16T03:09:32.824Z,30.00
2019-01-16T03:12:24.271Z,30.47
2019-01-16T03:15:02.356Z,28.83
2019-01-16T03:17:39.823Z,32.23
2019-01-16T03:20:31.299Z,30.83
2019-01-16T03:23:09.047Z,33.00
2019-01-16T03:25:46.768Z,32.77
2019-01-16T03:28:21.753Z,30.83
2019-01-16T03:31:02.481Z,30.87
2019-01-16T03:33:46.409Z,31.30
2019-01-16T03:36:37.334Z,31.43
2019-01-16T03:39:14.971Z,31.10
2019-01-16T03:41:50.008Z,30.97
2019-01-16T03:44:25.089Z,30.13
2019-01-16T03:47:00.051Z,31.30
2019-01-16T03:49:35.049Z,30.53
2019-01-16T03:52:12.509Z,34.33
2019-01-16T03:54:47.522Z,37.17
2019-01-16T03:57:22.556Z,30.50
2019-01-16T04:00:13.832Z,31.27
2019-01-16T04:02:51.789Z,33.90
2019-01-16T04:05:26.766Z,35.37
2019-01-16T04:08:19.881Z,32.37
2019-01-16T04:11:01.086Z,36.70
2019-01-16T04:13:52.054Z,34.30
2019-01-16T04:16:27.382Z,35.80
2019-01-16T04:19:05.302Z,33.67
2019-01-16T04:21:40.307Z,35.67
2019-01-16T04:24:20.983Z,34.83
2019-01-16T04:27:12.151Z,35.40
2019-01-16T04:29:50.086Z,36.87
2019-01-16T04:32:41.413Z,37.37
2019-01-16T04:35:28.021Z,35.03
2019-01-16T06:43:22.436Z,36.77
2019-01-16T06:45:57.560Z,37.37
2019-01-16T06:48:41.169Z,37.23
2019-01-16T06:51:22.469Z,37.60
2019-01-16T06:53:57.575Z,35.20
2019-01-16T06:56:32.642Z,39.17
2019-01-16T06:59:07.827Z,36.83
2019-01-16T07:01:49.112Z,39.20
2019-01-16T07:04:36.051Z,36.53
2019-01-16T07:07:19.922Z,36.37
2019-01-16T07:09:55.091Z,34.87
2019-01-16T07:12:46.711Z,35.10
2019-01-16T07:15:24.598Z,33.67
2019-01-16T07:18:05.175Z,37.90
2019-01-16T07:20:42.779Z,34.40
2019-01-16T07:23:33.997Z,35.00
2019-01-16T07:26:09.168Z,34.20
2019-01-16T07:28:44.238Z,31.90
2019-01-16T07:31:25.246Z,34.23
2019-01-16T07:34:09.229Z,33.03
2019-01-16T07:36:44.338Z,32.60
2019-01-16T07:39:31.045Z,32.43
2019-01-16T07:42:15.137Z,32.50
2019-01-16T07:44:50.205Z,30.53
2019-01-16T07:47:25.305Z,31.27
2019-01-16T07:50:03.333Z,31.00
2019-01-16T07:52:46.916Z,31.30
2019-01-16T07:55:27.895Z,29.53
2019-01-16T07:58:11.815Z,30.50
2019-01-16T08:01:02.050Z,30.43
2019-01-16T08:03:37.158Z,28.57
2019-01-16T08:06:18.309Z,29.43
2019-01-16T08:09:02.683Z,28.63
2019-01-16T08:11:37.819Z,27.20
2019-01-16T08:14:19.046Z,27.63
2019-01-16T08:17:10.425Z,29.33
2019-01-16T08:20:01.437Z,28.73
2019-01-16T08:22:36.572Z,27.33
2019-01-16T08:25:20.517Z,27.40
2019-01-16T08:27:55.589Z,27.63
2019-01-16T08:30:42.737Z,27.50
2019-01-16T08:33:17.803Z,27.90
2019-01-16T08:36:04.926Z,26.40
2019-01-16T08:38:42.934Z,27.67
2019-01-16T08:41:20.778Z,24.83
2019-01-16T08:44:01.583Z,25.27
2019-01-16T08:49:39.110Z,24.37
2019-01-16T08:52:32.208Z,25.43
2019-01-16T08:55:08.255Z,24.13
2019-01-16T08:57:43.445Z,23.73
2019-01-16T09:00:18.520Z,25.87
2019-01-16T09:03:12.042Z,24.57
2019-01-16T09:05:52.968Z,25.20
2019-01-16T09:08:40.100Z,25.47
2019-01-16T09:11:18.057Z,22.80
2019-01-16T09:14:02.500Z,21.03
2019-01-16T09:16:37.592Z,19.93
2019-01-16T09:19:18.789Z,21.00
2019-01-16T09:22:10.449Z,20.80
2019-01-16T09:25:00.794Z,19.27
2019-01-16T09:27:35.941Z,19.10
2019-01-16T09:30:16.664Z,19.67
2019-01-16T09:32:54.875Z,19.80
2019-01-16T09:35:36.242Z,19.00
2019-01-16T09:38:11.390Z,18.40
2019-01-16T09:40:49.599Z,17.93
2019-01-16T09:43:36.899Z,20.13
2019-01-16T09:46:30.479Z,17.00
2019-01-16T09:49:11.465Z,16.77
2019-01-16T09:52:03.071Z,16.67
2019-01-16T09:54:54.652Z,16.43
2019-01-16T09:57:29.837Z,16.10
2019-01-16T10:00:14.032Z,16.67
2019-01-16T10:02:52.462Z,15.87
2019-01-16T10:05:30.702Z,16.07
2019-01-16T10:08:06.094Z,14.87
2019-01-16T10:10:44.257Z,16.43
2019-01-16T10:13:22.204Z,16.37
2019-01-16T10:16:00.346Z,16.23
2019-01-16T10:18:44.259Z,16.47
2019-01-16T10:21:22.284Z,16.10
2019-01-16T10:23:57.577Z,16.97
2019-01-16T10:26:35.588Z,16.73
2019-01-16T10:29:19.629Z,16.07
2019-01-16T10:31:54.790Z,17.00
2019-01-16T10:34:45.371Z,17.13
2019-01-16T10:37:23.127Z,15.77
2019-01-16T10:40:16.667Z,17.77
2019-01-16T10:42:51.813Z,17.17
2019-01-16T10:45:45.133Z,17.03
2019-01-16T10:48:22.933Z,16.97
2019-01-16T10:51:14.646Z,18.53
2019-01-16T10:53:52.503Z,17.57
2019-01-16T10:56:27.690Z,18.27
2019-01-16T10:59:05.518Z,17.03
2019-01-16T11:01:52.767Z,17.77
2019-01-16T11:04:27.920Z,15.67
2019-01-16T11:07:05.819Z,17.57
2019-01-16T11:09:53.215Z,17.40
2019-01-16T11:12:45.003Z,18.60
2019-01-16T11:15:30.060Z,16.50
2019-01-16T11:18:11.599Z,16.50
2019-01-16T11:20:46.741Z,17.10
2019-01-16T11:23:27.731Z,17.40
2019-01-16T11:26:11.797Z,15.63
2019-01-16T11:29:03.520Z,16.93
2019-01-16T11:31:38.676Z,16.47
2019-01-16T11:34:16.750Z,16.03
2019-01-16T11:36:51.904Z,15.90
2019-01-16T11:39:43.727Z,16.10
2019-01-16T11:42:35.259Z,15.07
2019-01-16T11:45:19.347Z,17.30
2019-01-16T11:48:09.477Z,15.17
2019-01-16T11:50:56.682Z,16.17
2019-01-16T11:53:34.666Z,16.83
2019-01-16T11:56:12.636Z,17.37
2019-01-16T11:58:47.694Z,17.77
2019-01-16T12:01:39.149Z,17.27
2019-01-16T12:04:17.000Z,18.53
2019-01-16T12:07:04.527Z,19.03
2019-01-16T12:09:42.612Z,18.77
2019-01-16T12:12:23.272Z,17.77
2019-01-16T12:14:58.414Z,18.33
2019-01-16T12:17:49.793Z,17.37
2019-01-16T12:20:24.938Z,17.30
2019-01-16T12:23:09.276Z,17.37
2019-01-16T12:25:44.418Z,16.33
2019-01-16T12:28:35.805Z,16.13
2019-01-16T12:31:13.974Z,15.47
2019-01-16T12:33:49.179Z,16.63
2019-01-16T12:36:39.362Z,15.30
2019-01-16T12:39:32.633Z,16.10
2019-01-16T12:42:07.777Z,14.37
2019-01-16T12:44:43.044Z,15.30
2019-01-16T12:47:34.704Z,14.23
2019-01-16T12:50:28.268Z,13.60
2019-01-16T12:53:15.740Z,12.17
2019-01-16T12:55:50.963Z,11.90
2019-01-16T12:58:44.109Z,12.20
2019-01-16T13:01:37.257Z,12.00
2019-01-16T13:04:15.241Z,11.77
2019-01-16T13:06:52.940Z,10.93
2019-01-16T13:09:28.085Z,10.83
2019-01-16T13:12:03.263Z,10.23
2019-01-16T13:14:41.078Z,10.73
2019-01-16T13:17:22.371Z,10.17
2019-01-16T13:20:03.537Z,10.40
2019-01-16T13:22:54.832Z,8.60
2019-01-16T13:25:41.959Z,7.93
2019-01-16T13:28:33.435Z,8.50
2019-01-16T13:31:14.823Z,8.33
2019-01-16T13:33:50.211Z,7.90
2019-01-16T13:36:25.352Z,8.03
2019-01-16T13:39:09.416Z,8.13
2019-01-16T13:41:53.486Z,8.60
2019-01-16T13:44:28.757Z,8.63
2019-01-16T13:47:20.355Z,9.03
2019-01-16T13:50:01.698Z,8.33
2019-01-16T13:52:42.751Z,8.77
2019-01-16T13:55:34.252Z,7.87
2019-01-16T13:58:25.573Z,8.57
2019-01-16T14:01:00.748Z,9.07
2019-01-16T14:03:50.896Z,8.97
2019-01-16T14:06:29.040Z,7.97
2019-01-16T14:09:04.180Z,7.70
2019-01-16T14:11:57.646Z,7.57
2019-01-16T14:14:35.358Z,8.10
2019-01-16T14:17:16.413Z,7.60
2019-01-16T14:20:08.349Z,8.50
2019-01-16T14:22:43.529Z,8.10
2019-01-16T14:25:34.890Z,8.00
2019-01-16T14:28:26.617Z,8.23
2019-01-16T14:31:01.723Z,7.80
2019-01-16T14:33:51.991Z,8.17
2019-01-16T14:36:36.001Z,8.30
2019-01-16T14:39:30.049Z,7.23
2019-01-16T14:42:14.224Z,7.60
2019-01-16T14:44:55.538Z,8.67
2019-01-16T14:47:36.529Z,7.80
2019-01-16T14:50:12.802Z,8.33
2019-01-16T14:53:06.035Z,7.60
2019-01-16T14:55:41.218Z,7.23
2019-01-16T14:58:19.350Z,7.63
2019-01-16T15:01:11.524Z,7.90
2019-01-16T15:03:46.661Z,7.00
2019-01-16T15:06:27.555Z,8.80
2019-01-16T15:09:02.689Z,8.33
2019-01-16T15:11:47.144Z,9.10
2019-01-16T15:14:28.297Z,9.70
2019-01-16T15:17:06.131Z,9.80
2019-01-16T15:19:59.402Z,9.20
2019-01-16T15:22:34.569Z,10.47
2019-01-16T15:25:18.949Z,9.97
2019-01-16T15:27:57.333Z,9.33
2019-01-16T15:30:41.491Z,10.17
2019-01-16T15:33:16.664Z,9.77
2019-01-16T15:35:58.339Z,10.77
2019-01-16T15:38:51.448Z,11.80
2019-01-16T15:41:38.449Z,11.70
2019-01-16T15:44:25.955Z,12.97
2019-01-16T15:47:01.106Z,12.40
2019-01-16T15:49:36.281Z,12.47
2019-01-16T15:52:13.086Z,13.70
2019-01-16T15:54:51.473Z,13.57
2019-01-16T15:57:35.380Z,14.73
2019-01-16T16:00:13.123Z,13.57
2019-01-16T16:02:54.289Z,13.87
2019-01-16T16:05:35.489Z,13.97
2019-01-16T16:08:25.727Z,13.87
2019-01-16T16:11:03.625Z,13.63
2019-01-16T16:13:41.293Z,13.97
2019-01-16T16:16:19.602Z,14.17
2019-01-16T16:18:54.676Z,14.47
2019-01-16T16:21:44.943Z,14.13
2019-01-16T16:24:36.320Z,13.80
2019-01-16T16:27:17.407Z,14.07
2019-01-16T16:29:55.470Z,13.93
2019-01-16T16:32:36.409Z,13.97
2019-01-16T16:35:11.575Z,13.73
2019-01-16T16:38:04.538Z,13.60
2019-01-16T16:40:54.386Z,13.60
2019-01-16T16:43:29.559Z,14.33
2019-01-16T16:46:16.962Z,13.23
2019-01-16T16:49:10.611Z,13.90
2019-01-16T16:51:54.477Z,13.53
2019-01-16T16:54:46.132Z,13.67
2019-01-16T16:57:39.360Z,13.23
2019-01-16T17:00:31.363Z,13.30
2019-01-16T17:03:23.017Z,13.40
2019-01-16T17:06:07.481Z,14.33
2019-01-16T17:08:54.705Z,13.50
2019-01-16T17:11:29.878Z,12.73
2019-01-16T17:14:21.364Z,11.57
2019-01-16T17:16:59.667Z,13.40
2019-01-16T17:19:46.734Z,12.90
2019-01-16T17:22:24.909Z,12.60
2019-01-16T17:24:59.975Z,11.27
2019-01-16T17:27:41.297Z,11.20
2019-01-16T17:30:33.112Z,11.80
2019-01-16T17:33:23.332Z,12.17
2019-01-16T17:36:14.759Z,12.03
2019-01-16T17:39:06.232Z,11.10
2019-01-16T17:41:47.135Z,21.07
2019-01-16T17:44:38.507Z,12.77
2019-01-16T17:47:32.045Z,10.90
2019-01-16T17:50:19.292Z,10.67
2019-01-16T17:53:06.458Z,11.43
2019-01-16T17:55:56.974Z,10.43
2019-01-16T17:58:47.151Z,11.07
2019-01-16T18:01:22.374Z,11.73
2019-01-16T18:04:03.635Z,10.37
2019-01-16T18:06:41.895Z,13.07
2019-01-16T18:09:32.207Z,10.87
2019-01-16T18:12:10.476Z,10.43
2019-01-16T18:14:45.664Z,11.47
2019-01-16T18:17:23.835Z,11.17
2019-01-16T18:20:14.941Z,12.53
2019-01-16T18:23:01.828Z,12.53
2019-01-16T18:25:43.086Z,13.30
2019-01-16T18:28:23.753Z,14.50
2019-01-16T18:31:14.044Z,15.50
2019-01-16T18:33:55.215Z,15.00
2019-01-16T18:36:33.020Z,16.20
2019-01-16T18:39:26.438Z,16.93
2019-01-16T18:42:01.737Z,18.27
2019-01-16T18:44:45.736Z,17.13
2019-01-16T18:47:21.064Z,17.87
2019-01-16T18:50:01.924Z,18.13
2019-01-16T18:52:55.298Z,18.30
2019-01-16T18:55:32.847Z,18.57
2019-01-16T18:58:24.160Z,19.30
2019-01-16T19:00:59.299Z,19.37
2019-01-16T19:03:43.270Z,17.97
2019-01-16T19:06:35.229Z,17.03
2019-01-16T19:09:16.989Z,19.77
2019-01-16T19:11:57.932Z,18.93
2019-01-16T19:14:35.586Z,19.00
2019-01-16T19:17:16.606Z,19.37
2019-01-16T19:19:54.648Z,21.83
2019-01-16T19:22:38.896Z,21.77
2019-01-16T19:25:14.115Z,19.70
2019-01-16T19:30:46.368Z,18.37
2019-01-16T19:33:21.440Z,19.43
2019-01-16T19:35:59.675Z,18.30
2019-01-16T19:38:52.784Z,17.27
2019-01-16T19:41:30.780Z,16.43
2019-01-16T19:44:08.862Z,18.67
2019-01-16T19:47:00.582Z,16.57
2019-01-16T19:49:35.707Z,17.87
2019-01-16T19:52:13.854Z,18.47
2019-01-16T19:55:00.858Z,16.53
2019-01-16T19:57:38.605Z,16.73
2019-01-16T20:00:19.456Z,16.57
2019-01-16T20:03:11.048Z,15.67
2019-01-16T20:05:46.101Z,15.73
2019-01-16T20:08:21.219Z,16.00
2019-01-16T20:11:07.842Z,15.70
2019-01-16T20:13:52.315Z,14.60
2019-01-16T20:16:43.712Z,14.50
2019-01-16T20:19:34.313Z,15.37
2019-01-16T20:22:12.294Z,15.57
2019-01-16T20:25:05.803Z,14.33
2019-01-16T20:27:56.977Z,16.67
2019-01-16T20:30:48.611Z,15.13
2019-01-16T20:33:26.727Z,12.33
2019-01-16T20:36:07.589Z,12.97
2019-01-16T20:38:45.779Z,12.83
2019-01-16T20:41:37.625Z,12.67
2019-01-16T20:44:28.175Z,12.57
2019-01-16T20:47:03.433Z,12.80
2019-01-16T20:49:55.101Z,12.77
2019-01-16T20:52:30.352Z,11.93
2019-01-16T20:55:06.105Z,11.27
2019-01-16T20:57:44.000Z,10.23
2019-01-16T21:00:19.704Z,10.83
2019-01-16T21:03:03.734Z,10.07
2019-01-16T21:05:42.488Z,10.90
2019-01-16T21:08:17.663Z,10.23
2019-01-16T21:11:08.794Z,11.23
2019-01-16T21:13:56.736Z,10.50
2019-01-16T21:16:40.918Z,10.70
2019-01-16T21:19:31.108Z,10.63
2019-01-16T21:22:14.854Z,12.23
2019-01-16T21:25:08.551Z,11.10
2019-01-16T21:27:59.530Z,10.13
2019-01-16T21:30:51.241Z,10.17
2019-01-16T21:33:43.425Z,9.77
2019-01-16T21:36:18.696Z,9.63
2019-01-16T21:39:05.951Z,9.70
2019-01-16T21:41:41.051Z,10.43
2019-01-16T21:44:16.184Z,9.97
2019-01-16T21:46:57.302Z,10.20
2019-01-16T21:49:35.182Z,9.80
2019-01-16T21:52:20.431Z,9.97
2019-01-16T21:54:55.582Z,9.67
2019-01-16T21:57:36.421Z,10.03
2019-01-16T22:00:22.896Z,9.57
2019-01-16T22:03:07.146Z,9.67
2019-01-16T22:05:48.201Z,8.70
2019-01-16T22:08:39.234Z,8.77
2019-01-16T22:11:17.103Z,8.80
2019-01-16T22:14:07.233Z,9.80
2019-01-16T22:16:45.006Z,9.43
2019-01-16T22:19:20.093Z,9.27
2019-01-16T22:22:10.597Z,9.50
2019-01-16T22:24:45.772Z,8.90
2019-01-16T22:27:39.381Z,9.40
2019-01-16T22:30:22.848Z,9.10
2019-01-16T22:33:00.962Z,9.30
2019-01-16T22:35:53.952Z,9.23
2019-01-16T22:38:34.914Z,8.50
2019-01-16T22:41:26.006Z,9.80
2019-01-16T22:44:01.068Z,9.30
2019-01-16T22:46:39.115Z,10.27
2019-01-16T22:49:16.927Z,10.07
2019-01-16T22:51:55.147Z,10.03
2019-01-16T22:54:46.805Z,10.57
2019-01-16T22:57:27.751Z,11.37
2019-01-16T23:00:02.889Z,10.63
2019-01-16T23:02:53.118Z,10.17
2019-01-16T23:05:36.672Z,11.27
2019-01-16T23:08:14.668Z,10.87
2019-01-16T23:10:55.718Z,11.00
2019-01-16T23:13:30.888Z,10.97
2019-01-16T23:16:15.076Z,11.00
2019-01-16T23:18:50.250Z,10.63
2019-01-16T23:21:40.739Z,11.17
2019-01-16T23:24:31.210Z,11.20
2019-01-16T23:27:09.257Z,11.83
2019-01-16T23:29:50.380Z,12.30
2019-01-16T23:32:24.230Z,12.40
2019-01-16T23:35:08.552Z,11.60
2019-01-16T23:37:49.843Z,11.87
2019-01-16T23:40:37.037Z,11.47
2019-01-16T23:43:20.758Z,12.07
2019-01-16T23:45:58.948Z,11.83
2019-01-16T23:48:34.078Z,11.33
2019-01-16T23:51:09.181Z,12.53
2019-01-16T23:54:00.509Z,12.73
2019-01-16T23:56:44.647Z,13.10
2019-01-16T23:59:36.393Z,13.90
